createdAt,value
2019-05-18T00:01:00.950Z,91.60
2019-05-18T00:03:30.516Z,91.10
2019-05-18T00:06:00.076Z,91.90
2019-05-18T00:08:31.192Z,91.90
2019-05-18T00:11:00.765Z,91.90
2019-05-18T00:13:30.524Z,91.90
2019-05-18T00:16:00.153Z,91.90
2019-05-18T00:18:29.734Z,91.90
2019-05-18T00:20:59.317Z,91.90
2019-05-18T00:23:28.885Z,91.90
2019-05-18T00:25:58.511Z,91.90
2019-05-18T00:28:28.243Z,91.90
2019-05-18T00:30:57.812Z,91.90
2019-05-18T00:33:27.417Z,91.90
2019-05-18T00:35:56.953Z,91.90
2019-05-18T00:38:26.523Z,91.90
2019-05-18T00:40:56.104Z,91.90
2019-05-18T00:43:25.734Z,91.90
2019-05-18T00:45:55.303Z,91.90
2019-05-18T00:48:24.920Z,91.90
2019-05-18T00:50:54.573Z,91.90
2019-05-18T00:53:24.756Z,91.90
2019-05-18T00:55:54.318Z,91.90
2019-05-18T00:58:23.899Z,91.90
2019-05-18T01:00:53.476Z,91.90
2019-05-18T01:03:23.036Z,91.90
2019-05-18T01:05:52.614Z,91.90
2019-05-18T01:08:22.192Z,91.90
2019-05-18T01:10:52.416Z,91.90
2019-05-18T01:13:21.997Z,91.90
2019-05-18T01:15:51.566Z,91.90
2019-05-18T01:18:21.191Z,91.90
2019-05-18T01:20:52.572Z,91.90
2019-05-18T01:23:22.143Z,91.90
2019-05-18T01:25:52.173Z,91.90
2019-05-18T01:28:21.805Z,91.90
2019-05-18T01:30:51.368Z,91.90
2019-05-18T01:33:20.929Z,91.90
2019-05-18T01:35:51.826Z,91.90
2019-05-18T01:38:21.387Z,91.90
2019-05-18T01:40:50.964Z,91.90
2019-05-18T01:43:20.530Z,91.90
2019-05-18T01:45:50.108Z,91.90
2019-05-18T01:48:19.684Z,91.90
2019-05-18T01:50:49.252Z,91.90
2019-05-18T01:53:18.828Z,91.90
2019-05-18T01:55:48.406Z,91.90
2019-05-18T01:58:17.962Z,91.90
2019-05-18T02:00:47.542Z,91.90
2019-05-18T02:03:17.099Z,91.70
2019-05-18T02:05:46.823Z,91.40
2019-05-18T02:08:16.380Z,91.50
2019-05-18T02:10:45.986Z,91.00
2019-05-18T02:13:15.513Z,91.00
2019-05-18T02:15:45.091Z,91.00
2019-05-18T02:18:28.325Z,91.40
2019-05-18T02:20:46.017Z,91.50
2019-05-18T02:23:15.580Z,91.50
2019-05-18T02:25:45.279Z,91.90
2019-05-18T02:28:14.923Z,91.90
2019-05-18T02:30:44.549Z,91.90
2019-05-18T02:33:14.123Z,91.90
2019-05-18T02:35:43.763Z,91.90
2019-05-18T02:38:14.777Z,91.90
2019-05-18T02:40:45.553Z,91.90
2019-05-18T02:43:16.401Z,91.80
2019-05-18T02:45:46.039Z,91.40
2019-05-18T02:48:15.613Z,91.70
2019-05-18T02:50:45.195Z,91.90
2019-05-18T02:53:16.279Z,91.90
2019-05-18T02:55:45.857Z,91.80
2019-05-18T02:58:15.542Z,91.90
2019-05-18T03:00:45.127Z,91.90
2019-05-18T03:03:36.793Z,91.90
2019-05-18T03:06:06.585Z,91.90
2019-05-18T03:08:36.267Z,91.80
2019-05-18T03:11:06.010Z,91.90
2019-05-18T03:13:35.728Z,91.90
2019-05-18T03:16:05.455Z,91.80
2019-05-18T03:18:35.073Z,91.90
2019-05-18T03:21:04.644Z,91.90
2019-05-18T03:23:34.200Z,91.90
2019-05-18T03:26:03.878Z,91.90
2019-05-18T03:28:33.475Z,91.90
2019-05-18T03:31:04.577Z,91.90
2019-05-18T03:33:34.168Z,91.90
2019-05-18T03:36:03.711Z,91.90
2019-05-18T03:38:33.281Z,91.90
2019-05-18T03:41:02.867Z,91.90
2019-05-18T03:43:32.438Z,91.90
2019-05-18T03:46:02.036Z,91.90
2019-05-18T03:48:31.608Z,91.90
2019-05-18T03:51:01.169Z,91.90
2019-05-18T03:53:30.749Z,91.90
2019-05-18T03:56:00.322Z,91.90
2019-05-18T03:58:29.879Z,91.90
2019-05-18T04:00:59.435Z,91.90
2019-05-18T04:03:29.000Z,91.90
2019-05-18T04:05:58.556Z,91.90
2019-05-18T04:08:28.248Z,91.90
2019-05-18T04:10:57.823Z,91.90
2019-05-18T04:13:27.442Z,91.90
2019-05-18T04:15:57.018Z,91.90
2019-05-18T04:18:26.582Z,91.90
2019-05-18T04:20:56.155Z,91.90
2019-05-18T04:23:25.709Z,91.90
2019-05-18T04:25:55.276Z,91.90
2019-05-18T04:28:24.853Z,91.90
2019-05-18T04:30:54.405Z,91.90
2019-05-18T04:33:23.973Z,91.90
2019-05-18T04:35:53.554Z,91.90
2019-05-18T04:38:23.115Z,91.90
2019-05-18T04:40:52.677Z,91.90
2019-05-18T04:43:22.248Z,91.90
2019-05-18T04:45:51.811Z,91.90
2019-05-18T04:48:21.378Z,91.90
2019-05-18T04:50:50.952Z,91.90
2019-05-18T04:53:20.530Z,91.90
2019-05-18T04:55:53.140Z,91.90
2019-05-18T04:58:22.710Z,91.90
2019-05-18T05:00:52.269Z,91.90
2019-05-18T05:03:21.831Z,91.90
2019-05-18T05:05:51.423Z,91.90
2019-05-18T05:08:20.967Z,91.90
2019-05-18T05:10:50.551Z,91.90
2019-05-18T05:13:20.183Z,91.90
2019-05-18T05:15:50.793Z,91.90
2019-05-18T05:18:20.300Z,91.90
2019-05-18T05:20:49.958Z,91.90
2019-05-18T05:23:19.531Z,91.90
2019-05-18T05:25:49.097Z,91.90
2019-05-18T05:28:18.677Z,91.90
2019-05-18T05:30:48.245Z,91.90
2019-05-18T05:33:17.811Z,91.90
2019-05-18T05:35:47.375Z,91.90
2019-05-18T05:38:16.951Z,91.90
2019-05-18T05:40:46.512Z,91.90
2019-05-18T05:43:16.091Z,91.90
2019-05-18T05:45:45.663Z,91.90
2019-05-18T05:48:15.233Z,91.90
2019-05-18T05:50:46.714Z,91.90
2019-05-18T05:53:16.353Z,91.90
2019-05-18T05:55:47.450Z,91.70
2019-05-18T05:58:17.046Z,90.90
2019-05-18T06:00:46.612Z,90.80
2019-05-18T06:03:16.170Z,90.20
2019-05-18T06:05:45.731Z,90.10
2019-05-18T06:08:15.972Z,90.30
2019-05-18T06:10:45.550Z,89.40
2019-05-18T06:13:15.171Z,88.90
2019-05-18T06:15:44.747Z,88.60
2019-05-18T06:18:14.370Z,89.00
2019-05-18T06:20:51.618Z,88.30
2019-05-18T06:23:15.247Z,87.90
2019-05-18T06:25:45.078Z,87.50
2019-05-18T06:28:14.654Z,87.20
2019-05-18T06:30:44.215Z,86.70
2019-05-18T06:33:13.779Z,87.20
2019-05-18T06:35:43.340Z,87.00
2019-05-18T06:38:12.907Z,86.80
2019-05-18T06:40:42.472Z,86.40
2019-05-18T06:43:12.027Z,86.60
2019-05-18T06:45:41.604Z,85.50
2019-05-18T06:48:11.204Z,86.20
2019-05-18T06:50:40.761Z,86.00
2019-05-18T06:53:10.892Z,85.70
2019-05-18T06:55:41.471Z,85.60
2019-05-18T06:58:12.454Z,85.90
2019-05-18T07:00:42.010Z,85.30
2019-05-18T07:03:11.603Z,85.40
2019-05-18T07:05:41.161Z,85.10
2019-05-18T07:08:10.815Z,84.40
2019-05-18T07:10:40.385Z,84.20
2019-05-18T07:13:09.938Z,84.70
2019-05-18T07:15:40.521Z,84.80
2019-05-18T07:18:11.304Z,84.20
2019-05-18T07:20:40.881Z,82.90
2019-05-18T07:23:10.441Z,83.20
2019-05-18T07:25:39.994Z,83.40
2019-05-18T07:28:09.578Z,83.40
2019-05-18T07:30:39.136Z,83.10
2019-05-18T07:33:09.894Z,83.60
2019-05-18T07:35:39.533Z,83.80
2019-05-18T07:38:09.180Z,83.80
2019-05-18T07:40:38.751Z,84.00
2019-05-18T07:43:08.330Z,83.60
2019-05-18T07:45:38.466Z,84.50
2019-05-18T07:48:08.112Z,83.90
2019-05-18T07:50:37.665Z,83.80
2019-05-18T07:53:07.306Z,83.50
2019-05-18T07:55:36.871Z,83.40
2019-05-18T07:58:06.449Z,83.10
2019-05-18T08:00:36.157Z,82.50
2019-05-18T08:03:05.800Z,82.70
2019-05-18T08:05:36.122Z,82.10
2019-05-18T08:08:05.683Z,82.40
2019-05-18T08:10:37.888Z,82.60
2019-05-18T08:13:08.566Z,81.90
2019-05-18T08:15:38.477Z,81.60
2019-05-18T08:18:08.189Z,81.30
2019-05-18T08:20:37.838Z,80.50
2019-05-18T08:23:07.417Z,80.90
2019-05-18T08:25:36.989Z,80.60
2019-05-18T08:28:06.617Z,80.30
2019-05-18T08:30:36.183Z,80.00
2019-05-18T08:33:05.883Z,79.90
2019-05-18T08:35:35.520Z,79.80
2019-05-18T08:38:06.869Z,79.80
2019-05-18T08:40:36.472Z,80.00
2019-05-18T08:43:06.020Z,79.00
2019-05-18T08:45:35.588Z,78.30
2019-05-18T08:48:05.224Z,79.10
2019-05-18T08:50:34.785Z,79.50
2019-05-18T08:53:04.430Z,79.70
2019-05-18T08:55:33.989Z,80.10
2019-05-18T08:58:03.553Z,80.10
2019-05-18T09:00:33.120Z,79.90
2019-05-18T09:03:02.700Z,79.50
2019-05-18T09:05:32.260Z,78.50
2019-05-18T09:08:01.839Z,79.10
2019-05-18T09:10:31.402Z,78.60
2019-05-18T09:13:00.977Z,78.90
2019-05-18T09:15:30.532Z,79.50
2019-05-18T09:18:00.088Z,79.40
2019-05-18T09:20:29.649Z,78.40
2019-05-18T09:22:59.217Z,78.60
2019-05-18T09:25:28.794Z,78.90
2019-05-18T09:27:59.495Z,77.50
2019-05-18T09:30:29.061Z,75.80
2019-05-18T09:32:58.698Z,75.30
2019-05-18T09:35:28.258Z,75.40
2019-05-18T09:37:57.848Z,75.10
2019-05-18T09:40:28.221Z,74.10
2019-05-18T09:42:57.773Z,73.30
2019-05-18T09:45:27.415Z,73.10
2019-05-18T09:47:56.998Z,73.10
2019-05-18T09:50:26.549Z,72.80
2019-05-18T09:52:56.151Z,73.40
2019-05-18T09:55:25.707Z,73.60
2019-05-18T09:57:55.275Z,72.50
2019-05-18T10:00:25.041Z,72.80
2019-05-18T10:02:54.596Z,72.20
2019-05-18T10:05:25.631Z,72.30
2019-05-18T10:07:55.190Z,72.70
2019-05-18T10:10:24.807Z,71.80
2019-05-18T10:12:54.368Z,71.50
2019-05-18T10:15:24.006Z,71.90
2019-05-18T10:17:53.578Z,71.60
2019-05-18T10:20:23.156Z,71.10
2019-05-18T10:23:04.236Z,70.80
2019-05-18T10:25:24.080Z,70.70
2019-05-18T10:27:53.640Z,71.10
2019-05-18T10:30:23.450Z,70.90
2019-05-18T10:32:53.015Z,71.00
2019-05-18T10:35:22.586Z,70.90
2019-05-18T10:37:52.150Z,69.60
2019-05-18T10:40:21.786Z,70.80
2019-05-18T10:42:51.347Z,70.60
2019-05-18T10:45:21.247Z,70.10
2019-05-18T10:47:50.818Z,70.60
2019-05-18T10:50:20.450Z,69.80
2019-05-18T10:52:50.019Z,70.10
2019-05-18T10:55:19.815Z,69.90
2019-05-18T10:57:49.386Z,69.00
2019-05-18T11:00:21.119Z,69.40
2019-05-18T11:02:50.961Z,70.30
2019-05-18T11:05:20.670Z,68.50
2019-05-18T11:07:50.317Z,69.50
2019-05-18T11:10:20.402Z,67.90
2019-05-18T11:12:50.110Z,66.10
2019-05-18T11:15:20.418Z,66.00
2019-05-18T11:17:49.967Z,65.80
2019-05-18T11:20:20.150Z,64.80
2019-05-18T11:22:49.714Z,64.00
2019-05-18T11:25:19.491Z,62.50
2019-05-18T11:27:49.065Z,62.10
2019-05-18T11:30:19.029Z,60.90
2019-05-18T11:32:48.607Z,59.70
2019-05-18T11:35:20.443Z,58.00
2019-05-18T11:37:50.169Z,56.40
2019-05-18T11:40:20.450Z,57.50
2019-05-18T11:42:50.020Z,56.00
2019-05-18T11:45:21.317Z,57.10
2019-05-18T11:47:50.942Z,58.20
2019-05-18T11:50:22.152Z,59.00
2019-05-18T11:52:51.709Z,59.20
2019-05-18T11:55:21.693Z,59.80
2019-05-18T11:57:51.318Z,58.90
2019-05-18T12:00:23.570Z,58.50
2019-05-18T12:02:53.296Z,57.60
2019-05-18T12:05:22.924Z,57.50
2019-05-18T12:07:52.497Z,57.50
2019-05-18T12:10:22.270Z,56.10
2019-05-18T12:12:51.978Z,55.00
2019-05-18T12:15:23.362Z,55.70
2019-05-18T12:17:52.956Z,55.30
2019-05-18T12:20:24.203Z,55.20
2019-05-18T12:22:53.743Z,53.90
2019-05-18T12:25:23.393Z,55.00
2019-05-18T12:27:52.960Z,53.60
2019-05-18T12:30:24.224Z,53.90
2019-05-18T12:32:53.792Z,54.20
2019-05-18T12:35:23.439Z,53.70
2019-05-18T12:37:53.004Z,53.30
2019-05-18T12:40:23.289Z,53.10
2019-05-18T12:42:52.941Z,52.10
2019-05-18T12:45:23.119Z,52.10
2019-05-18T12:47:52.677Z,52.10
2019-05-18T12:50:23.164Z,51.30
2019-05-18T12:52:54.260Z,50.60
2019-05-18T12:55:23.971Z,50.90
2019-05-18T12:57:53.820Z,50.90
2019-05-18T13:00:24.489Z,51.00
2019-05-18T13:02:54.061Z,50.40
2019-05-18T13:05:24.189Z,51.90
2019-05-18T13:07:53.756Z,52.10
2019-05-18T13:10:23.925Z,51.50
2019-05-18T13:12:55.145Z,51.00
2019-05-18T13:15:25.433Z,50.10
2019-05-18T13:17:55.021Z,51.00
2019-05-18T13:20:25.148Z,53.10
2019-05-18T13:22:54.748Z,53.70
2019-05-18T13:25:24.517Z,54.00
2019-05-18T13:27:54.102Z,54.00
2019-05-18T13:30:24.175Z,54.10
2019-05-18T13:32:53.726Z,54.60
2019-05-18T13:35:25.277Z,60.70
2019-05-18T13:37:54.846Z,64.00
2019-05-18T13:40:25.033Z,66.90
2019-05-18T13:42:54.602Z,67.50
2019-05-18T13:45:24.302Z,67.10
2019-05-18T13:47:53.854Z,67.40
2019-05-18T13:50:23.568Z,68.30
2019-05-18T13:52:54.720Z,69.90
2019-05-18T13:55:24.291Z,70.90
2019-05-18T13:57:53.846Z,71.40
2019-05-18T14:00:23.569Z,71.40
2019-05-18T14:02:53.214Z,72.00
2019-05-18T14:05:22.957Z,72.40
2019-05-18T14:07:52.512Z,72.70
2019-05-18T14:10:22.216Z,72.40
2019-05-18T14:12:53.678Z,71.80
2019-05-18T14:15:23.412Z,72.00
2019-05-18T14:17:53.042Z,72.10
2019-05-18T14:20:22.697Z,72.50
2019-05-18T14:22:52.318Z,72.80
2019-05-18T14:25:21.926Z,75.00
2019-05-18T14:27:52.279Z,73.60
2019-05-18T14:30:22.242Z,73.10
2019-05-18T14:32:51.812Z,71.10
2019-05-18T14:35:21.473Z,70.50
2019-05-18T14:37:52.770Z,70.60
2019-05-18T14:40:22.414Z,69.40
2019-05-18T14:42:51.962Z,68.70
2019-05-18T14:45:21.603Z,68.40
2019-05-18T14:47:51.189Z,66.00
2019-05-18T14:50:21.558Z,65.50
2019-05-18T14:52:51.224Z,64.70
2019-05-18T14:55:32.704Z,65.20
2019-05-18T14:57:52.240Z,64.10
2019-05-18T15:00:23.102Z,61.50
2019-05-18T15:02:52.757Z,59.30
2019-05-18T15:05:22.387Z,60.60
2019-05-18T15:07:51.959Z,60.60
2019-05-18T15:10:21.573Z,60.80
2019-05-18T15:12:51.176Z,61.90
2019-05-18T15:15:20.967Z,62.40
2019-05-18T15:17:50.577Z,62.30
2019-05-18T15:20:23.209Z,63.00
2019-05-18T15:22:52.840Z,62.50
2019-05-18T15:25:22.415Z,64.20
2019-05-18T15:27:52.063Z,65.30
2019-05-18T15:30:21.837Z,65.50
2019-05-18T15:32:51.401Z,65.90
2019-05-18T15:35:21.117Z,66.40
2019-05-18T15:37:50.742Z,67.90
2019-05-18T15:40:20.329Z,67.80
2019-05-18T15:42:49.885Z,68.30
2019-05-18T15:45:20.026Z,68.20
2019-05-18T15:47:49.603Z,68.80
2019-05-18T15:50:21.501Z,68.40
2019-05-18T15:52:51.056Z,68.70
2019-05-18T15:55:21.057Z,68.60
2019-05-18T15:57:50.651Z,69.20
2019-05-18T16:00:21.714Z,69.40
2019-05-18T16:02:51.952Z,69.80
2019-05-18T16:05:21.510Z,68.90
2019-05-18T16:07:51.153Z,69.00
2019-05-18T16:10:22.545Z,69.00
2019-05-18T16:12:52.126Z,68.60
2019-05-18T16:15:21.824Z,68.10
2019-05-18T16:17:51.406Z,68.40
2019-05-18T16:20:21.920Z,68.20
2019-05-18T16:22:51.482Z,68.20
2019-05-18T16:25:21.189Z,67.80
2019-05-18T16:27:50.789Z,67.60
2019-05-18T16:30:20.559Z,66.70
2019-05-18T16:32:50.181Z,67.60
2019-05-18T16:35:20.349Z,67.70
2019-05-18T16:37:49.914Z,67.60
2019-05-18T16:40:19.688Z,68.10
2019-05-18T16:42:49.236Z,68.50
2019-05-18T16:45:18.942Z,69.10
2019-05-18T16:47:49.623Z,68.90
2019-05-18T16:50:21.910Z,69.50
2019-05-18T16:52:51.554Z,69.70
2019-05-18T16:55:22.219Z,69.80
2019-05-18T16:57:52.096Z,70.00
2019-05-18T17:00:22.739Z,69.40
2019-05-18T17:02:52.345Z,69.50
2019-05-18T17:05:21.991Z,69.80
2019-05-18T17:07:52.897Z,70.30
2019-05-18T17:10:22.750Z,70.50
2019-05-18T17:12:52.305Z,71.20
2019-05-18T17:15:22.080Z,72.20
2019-05-18T17:17:52.405Z,72.30
2019-05-18T17:20:22.433Z,71.70
2019-05-18T17:22:52.007Z,71.70
2019-05-18T17:25:21.572Z,71.50
2019-05-18T17:27:51.233Z,71.90
2019-05-18T17:30:21.007Z,71.50
2019-05-18T17:32:50.594Z,71.40
2019-05-18T17:35:20.224Z,71.80
2019-05-18T17:37:49.777Z,72.00
2019-05-18T17:40:19.556Z,72.40
2019-05-18T17:42:49.125Z,75.90
2019-05-18T17:45:18.837Z,80.70
2019-05-18T17:47:48.392Z,81.30
2019-05-18T17:50:18.311Z,81.60
2019-05-18T17:52:47.871Z,81.90
2019-05-18T17:55:17.904Z,80.10
2019-05-18T17:57:47.461Z,79.70
2019-05-18T18:00:17.421Z,79.20
2019-05-18T18:02:48.356Z,78.80
2019-05-18T18:05:18.118Z,79.20
2019-05-18T18:07:47.764Z,79.60
2019-05-18T18:10:18.440Z,79.60
2019-05-18T18:12:48.054Z,79.60
2019-05-18T18:15:19.423Z,79.30
2019-05-18T18:17:48.987Z,79.40
2019-05-18T18:20:18.877Z,80.70
2019-05-18T18:22:48.450Z,80.90
2019-05-18T18:25:18.298Z,80.20
2019-05-18T18:27:47.882Z,80.40
2019-05-18T18:30:17.840Z,81.20
2019-05-18T18:32:47.414Z,81.20
2019-05-18T18:35:17.104Z,81.20
2019-05-18T18:37:46.701Z,80.90
2019-05-18T18:40:16.575Z,80.70
2019-05-18T18:42:46.129Z,80.30
2019-05-18T18:45:16.297Z,80.30
2019-05-18T18:47:45.925Z,80.10
2019-05-18T18:50:16.093Z,80.10
2019-05-18T18:52:45.657Z,79.70
2019-05-18T18:55:15.467Z,78.90
2019-05-18T18:57:45.302Z,78.20
2019-05-18T19:00:16.744Z,78.20
2019-05-18T19:02:46.313Z,77.50
2019-05-18T19:05:19.264Z,78.00
2019-05-18T19:07:48.841Z,78.00
2019-05-18T19:10:18.558Z,78.50
2019-05-18T19:12:48.130Z,78.00
2019-05-18T19:15:17.915Z,78.50
2019-05-18T19:17:49.015Z,78.80
2019-05-18T19:20:18.906Z,78.90
2019-05-18T19:22:48.470Z,78.70
2019-05-18T19:25:18.266Z,79.10
2019-05-18T19:27:54.989Z,80.00
2019-05-18T19:30:20.622Z,80.70
2019-05-18T19:32:50.185Z,80.80
2019-05-18T19:35:19.820Z,82.70
2019-05-18T19:37:49.400Z,85.10
2019-05-18T19:40:19.392Z,85.70
2019-05-18T19:42:48.959Z,86.30
2019-05-18T19:45:19.335Z,85.90
2019-05-18T19:47:49.978Z,87.10
2019-05-18T19:50:19.610Z,88.70
2019-05-18T19:52:49.191Z,89.90
2019-05-18T19:55:18.747Z,89.10
2019-05-18T19:57:49.455Z,90.90
2019-05-18T20:00:19.844Z,91.90
2019-05-18T20:02:49.491Z,90.30
2019-05-18T20:05:19.046Z,91.20
2019-05-18T20:07:48.610Z,91.60
2019-05-18T20:10:18.490Z,91.00
2019-05-18T20:12:48.050Z,90.50
2019-05-18T20:15:19.130Z,91.30
2019-05-18T20:17:48.692Z,91.80
2019-05-18T20:20:18.477Z,91.90
2019-05-18T20:22:49.643Z,91.90
2019-05-18T20:25:19.209Z,91.90
2019-05-18T20:27:48.776Z,91.90
2019-05-18T20:30:19.639Z,91.90
2019-05-18T20:32:49.207Z,91.90
2019-05-18T20:35:18.784Z,91.90
2019-05-18T20:37:48.351Z,91.90
2019-05-18T20:40:17.971Z,91.90
2019-05-18T20:42:47.546Z,91.90
2019-05-18T20:45:17.249Z,91.90
2019-05-18T20:47:46.974Z,91.90
2019-05-18T20:50:16.867Z,91.90
2019-05-18T20:52:47.349Z,91.90
2019-05-18T20:55:16.986Z,91.90
2019-05-18T20:57:47.610Z,91.90
2019-05-18T21:00:18.410Z,91.90
2019-05-18T21:02:47.970Z,91.90
2019-05-18T21:05:17.752Z,91.90
2019-05-18T21:07:47.329Z,91.90
2019-05-18T21:10:17.104Z,91.90
2019-05-18T21:12:46.660Z,91.90
2019-05-18T21:15:17.132Z,91.90
2019-05-18T21:17:46.693Z,91.90
2019-05-18T21:20:16.406Z,91.90
2019-05-18T21:22:46.111Z,91.90
2019-05-18T21:25:15.675Z,91.90
2019-05-18T21:27:45.244Z,91.90
2019-05-18T21:30:15.231Z,91.90
2019-05-18T21:32:44.797Z,91.90
2019-05-18T21:35:15.747Z,91.90
2019-05-18T21:37:45.455Z,91.90
2019-05-18T21:40:15.320Z,91.90
2019-05-18T21:42:44.900Z,91.90
2019-05-18T21:45:14.695Z,91.90
2019-05-18T21:47:44.262Z,91.90
2019-05-18T21:50:14.524Z,91.90
2019-05-18T21:52:45.663Z,91.90
2019-05-18T21:55:15.424Z,91.90
2019-05-18T21:57:46.521Z,91.90
2019-05-18T22:00:16.895Z,91.90
2019-05-18T22:02:46.450Z,91.90
2019-05-18T22:05:17.286Z,91.90
2019-05-18T22:07:46.843Z,91.90
2019-05-18T22:10:25.426Z,91.90
2019-05-18T22:12:47.948Z,91.90
2019-05-18T22:15:18.143Z,91.90
2019-05-18T22:18:06.573Z,91.90
2019-05-18T22:20:43.143Z,91.90
2019-05-18T22:23:08.875Z,91.90
2019-05-18T22:25:38.428Z,91.90
2019-05-18T22:28:07.989Z,91.90
2019-05-18T22:30:37.620Z,91.90
2019-05-18T22:33:07.192Z,91.90
2019-05-18T22:35:36.751Z,91.90
2019-05-18T22:38:06.343Z,91.90
2019-05-18T22:40:35.904Z,91.90
2019-05-18T22:43:05.538Z,91.90
2019-05-18T22:45:35.115Z,91.90
2019-05-18T22:48:04.697Z,91.90
2019-05-18T22:50:34.327Z,91.90
2019-05-18T22:53:03.895Z,91.90
2019-05-18T22:55:33.457Z,91.90
2019-05-18T22:58:03.041Z,91.90
2019-05-18T23:00:32.655Z,91.90
2019-05-18T23:03:03.776Z,91.90
2019-05-18T23:05:33.337Z,91.90
2019-05-18T23:08:02.905Z,91.90
2019-05-18T23:10:32.475Z,91.90
2019-05-18T23:13:02.047Z,91.90
2019-05-18T23:15:31.616Z,91.90
2019-05-18T23:18:01.180Z,91.90
2019-05-18T23:20:31.875Z,91.90
2019-05-18T23:23:02.721Z,91.90
2019-05-18T23:25:32.263Z,91.90
2019-05-18T23:28:01.928Z,91.90
2019-05-18T23:30:31.460Z,91.90
2019-05-18T23:33:01.136Z,91.90
2019-05-18T23:35:30.688Z,91.90
2019-05-18T23:38:00.318Z,91.90
2019-05-18T23:40:29.929Z,91.90
2019-05-18T23:42:59.515Z,91.90
2019-05-18T23:45:29.070Z,91.90
2019-05-18T23:47:59.542Z,91.90
2019-05-18T23:50:29.251Z,91.90
2019-05-18T23:52:58.812Z,91.90
2019-05-18T23:55:28.407Z,91.90
2019-05-18T23:58:04.942Z,91.90
